sensor_id;sensor_type;location;lat;lon;timestamp;pressure;altitude;pressure_sealevel;temperature;humidity
51261;BME280;61705;46.228;24.812;2023-10-19T00:01:08;97498.69;;;0.55;94.24
51261;BME280;61705;46.228;24.812;2023-10-19T00:03:35;97500.44;;;0.54;94.42
51261;BME280;61705;46.228;24.812;2023-10-19T00:06:02;97498.75;;;0.50;94.35
51261;BME280;61705;46.228;24.812;2023-10-19T00:08:29;97490.03;;;0.54;94.30
51261;BME280;61705;46.228;24.812;2023-10-19T00:11:07;97490.81;;;0.64;94.45
51261;BME280;61705;46.228;24.812;2023-10-19T00:13:38;97480.44;;;0.62;94.00
51261;BME280;61705;46.228;24.812;2023-10-19T00:16:06;97484.81;;;0.57;93.94
51261;BME280;61705;46.228;24.812;2023-10-19T00:18:59;97481.41;;;0.52;93.69
51261;BME280;61705;46.228;24.812;2023-10-19T00:21:26;97478.81;;;0.49;93.37
51261;BME280;61705;46.228;24.812;2023-10-19T00:23:57;97483.16;;;0.52;93.49
51261;BME280;61705;46.228;24.812;2023-10-19T00:26:26;97489.22;;;0.47;93.42
51261;BME280;61705;46.228;24.812;2023-10-19T00:28:53;97484.09;;;0.40;93.42
51261;BME280;61705;46.228;24.812;2023-10-19T00:31:23;97483.31;;;0.29;93.73
51261;BME280;61705;46.228;24.812;2023-10-19T00:33:50;97482.44;;;0.31;94.09
51261;BME280;61705;46.228;24.812;2023-10-19T00:36:21;97487.63;;;0.33;94.38
51261;BME280;61705;46.228;24.812;2023-10-19T00:38:49;97485.91;;;0.32;94.31
51261;BME280;61705;46.228;24.812;2023-10-19T00:41:22;97479.00;;;0.29;94.24
51261;BME280;61705;46.228;24.812;2023-10-19T00:43:54;97472.03;;;0.33;94.32
51261;BME280;61705;46.228;24.812;2023-10-19T00:46:31;97479.88;;;0.27;94.24
51261;BME280;61705;46.228;24.812;2023-10-19T00:49:01;97479.94;;;0.19;94.06
51261;BME280;61705;46.228;24.812;2023-10-19T00:51:37;97475.63;;;0.16;94.14
51261;BME280;61705;46.228;24.812;2023-10-19T00:56:53;97474.75;;;0.16;94.14
51261;BME280;61705;46.228;24.812;2023-10-19T00:59:25;97469.59;;;0.13;94.17
51261;BME280;61705;46.228;24.812;2023-10-19T01:01:56;97471.28;;;0.17;94.18
51261;BME280;61705;46.228;24.812;2023-10-19T01:05:02;97471.34;;;0.11;94.10
51261;BME280;61705;46.228;24.812;2023-10-19T01:07:32;97453.19;;;0.03;94.00
51261;BME280;61705;46.228;24.812;2023-10-19T01:10:09;97448.88;;;0.02;94.02
51261;BME280;61705;46.228;24.812;2023-10-19T01:12:38;97451.50;;;-0.01;94.13
51261;BME280;61705;46.228;24.812;2023-10-19T01:15:11;97445.44;;;-0.02;93.96
51261;BME280;61705;46.228;24.812;2023-10-19T01:17:50;97450.66;;;-0.03;94.13
51261;BME280;61705;46.228;24.812;2023-10-19T01:20:27;97444.56;;;-0.01;93.98
51261;BME280;61705;46.228;24.812;2023-10-19T01:28:07;97436.81;;;-0.02;94.41
51261;BME280;61705;46.228;24.812;2023-10-19T01:30:35;97436.00;;;-0.12;94.60
51261;BME280;61705;46.228;24.812;2023-10-19T01:33:05;97435.19;;;-0.18;94.78
51261;BME280;61705;46.228;24.812;2023-10-19T01:35:40;97436.94;;;-0.20;95.02
51261;BME280;61705;46.228;24.812;2023-10-19T01:38:25;97434.34;;;-0.22;95.25
51261;BME280;61705;46.228;24.812;2023-10-19T01:40:52;97428.31;;;-0.26;95.07
51261;BME280;61705;46.228;24.812;2023-10-19T01:43:21;97430.13;;;-0.34;94.96
51261;BME280;61705;46.228;24.812;2023-10-19T01:45:48;97429.22;;;-0.33;95.05
51261;BME280;61705;46.228;24.812;2023-10-19T01:48:15;97425.78;;;-0.38;94.85
51261;BME280;61705;46.228;24.812;2023-10-19T01:50:42;97419.72;;;-0.34;94.89
51261;BME280;61705;46.228;24.812;2023-10-19T01:53:09;97417.09;;;-0.32;94.67
51261;BME280;61705;46.228;24.812;2023-10-19T01:55:42;97424.91;;;-0.32;94.79
51261;BME280;61705;46.228;24.812;2023-10-19T01:58:10;97416.22;;;-0.31;94.83
51261;BME280;61705;46.228;24.812;2023-10-19T02:00:36;97418.81;;;-0.31;94.74
51261;BME280;61705;46.228;24.812;2023-10-19T02:03:07;97413.66;;;-0.34;94.71
51261;BME280;61705;46.228;24.812;2023-10-19T02:05:36;97405.94;;;-0.40;94.63
51261;BME280;61705;46.228;24.812;2023-10-19T02:08:08;97407.69;;;-0.47;94.76
51261;BME280;61705;46.228;24.812;2023-10-19T02:10:34;97413.72;;;-0.43;94.55
51261;BME280;61705;46.228;24.812;2023-10-19T02:13:02;97408.56;;;-0.46;94.49
51261;BME280;61705;46.228;24.812;2023-10-19T02:15:33;97402.56;;;-0.56;94.76
51261;BME280;61705;46.228;24.812;2023-10-19T02:18:03;97405.13;;;-0.50;94.96
51261;BME280;61705;46.228;24.812;2023-10-19T02:20:29;97403.34;;;-0.48;94.87
51261;BME280;61705;46.228;24.812;2023-10-19T02:23:06;97401.66;;;-0.52;94.95
51261;BME280;61705;46.228;24.812;2023-10-19T02:25:34;97399.09;;;-0.54;94.91
51261;BME280;61705;46.228;24.812;2023-10-19T02:28:04;97399.06;;;-0.55;95.11
51261;BME280;61705;46.228;24.812;2023-10-19T02:30:33;97402.53;;;-0.50;95.33
51261;BME280;61705;46.228;24.812;2023-10-19T02:33:03;97403.41;;;-0.56;95.10
51261;BME280;61705;46.228;24.812;2023-10-19T02:35:32;97395.72;;;-0.68;94.91
51261;BME280;61705;46.228;24.812;2023-10-19T02:38:04;97390.50;;;-0.65;95.07
51261;BME280;61705;46.228;24.812;2023-10-19T02:40:30;97388.78;;;-0.66;95.06
51261;BME280;61705;46.228;24.812;2023-10-19T02:43:00;97387.94;;;-0.68;95.00
51261;BME280;61705;46.228;24.812;2023-10-19T02:45:29;97386.19;;;-0.69;95.01
51261;BME280;61705;46.228;24.812;2023-10-19T02:47:58;97381.84;;;-0.68;95.07
51261;BME280;61705;46.228;24.812;2023-10-19T02:50:25;97388.78;;;-0.69;94.83
51261;BME280;61705;46.228;24.812;2023-10-19T02:52:52;97377.56;;;-0.68;94.85
51261;BME280;61705;46.228;24.812;2023-10-19T02:55:19;97384.47;;;-0.67;94.75
51261;BME280;61705;46.228;24.812;2023-10-19T02:57:49;57215.63;;;-144.75;100.00
51261;BME280;61705;46.228;24.812;2023-10-19T03:00:16;97377.56;;;-0.76;94.58
51261;BME280;61705;46.228;24.812;2023-10-19T03:02:49;97379.34;;;-0.78;94.89
51261;BME280;61705;46.228;24.812;2023-10-19T03:05:18;97373.25;;;-0.70;94.95
51261;BME280;61705;46.228;24.812;2023-10-19T03:07:45;97368.97;;;-0.82;94.60
51261;BME280;61705;46.228;24.812;2023-10-19T03:10:12;97374.19;;;-0.84;94.88
51261;BME280;61705;46.228;24.812;2023-10-19T03:12:50;97375.91;;;-0.84;94.84
51261;BME280;61705;46.228;24.812;2023-10-19T03:15:17;97375.06;;;-0.88;94.96
51261;BME280;61705;46.228;24.812;2023-10-19T03:17:47;97375.06;;;-0.85;94.76
51261;BME280;61705;46.228;24.812;2023-10-19T03:20:15;97370.75;;;-0.90;94.67
51261;BME280;61705;46.228;24.812;2023-10-19T03:22:44;97368.16;;;-0.90;94.82
51261;BME280;61705;46.228;24.812;2023-10-19T03:25:12;97358.63;;;-0.85;94.94
51261;BME280;61705;46.228;24.812;2023-10-19T03:27:58;97354.28;;;-0.80;95.00
51261;BME280;61705;46.228;24.812;2023-10-19T03:30:32;97353.41;;;-0.82;94.86
51261;BME280;61705;46.228;24.812;2023-10-19T03:33:06;97352.56;;;-0.86;94.85
51261;BME280;61705;46.228;24.812;2023-10-19T03:35:38;97356.03;;;-0.85;95.11
51261;BME280;61705;46.228;24.812;2023-10-19T03:38:08;97354.31;;;-0.88;94.92
51261;BME280;61705;46.228;24.812;2023-10-19T03:40:41;97350.84;;;-0.87;94.96
51261;BME280;61705;46.228;24.812;2023-10-19T03:43:07;97343.97;;;-0.91;94.98
51261;BME280;61705;46.228;24.812;2023-10-19T03:45:44;97337.06;;;-0.93;95.12
51261;BME280;61705;46.228;24.812;2023-10-19T03:48:19;97337.81;;;-0.75;95.02
51261;BME280;61705;46.228;24.812;2023-10-19T03:50:53;97333.50;;;-0.77;94.67
51261;BME280;61705;46.228;24.812;2023-10-19T03:53:22;97334.38;;;-0.78;94.43
51261;BME280;61705;46.228;24.812;2023-10-19T03:55:49;97338.69;;;-0.79;94.53
51261;BME280;61705;46.228;24.812;2023-10-19T03:58:22;57215.63;;;-144.75;100.00
51261;BME280;61705;46.228;24.812;2023-10-19T04:00:49;57215.63;;;-144.75;100.00
51261;BME280;61705;46.228;24.812;2023-10-19T04:03:16;57215.63;;;-144.75;100.00
51261;BME280;61705;46.228;24.812;2023-10-19T04:05:51;57215.63;;;-144.75;100.00
51261;BME280;61705;46.228;24.812;2023-10-19T04:08:17;97324.88;;;-0.82;94.49
51261;BME280;61705;46.228;24.812;2023-10-19T04:10:52;97303.31;;;-0.89;95.19
51261;BME280;61705;46.228;24.812;2023-10-19T04:13:38;97297.31;;;-0.96;95.34
51261;BME280;61705;46.228;24.812;2023-10-19T04:16:04;97302.50;;;-0.96;95.24
51261;BME280;61705;46.228;24.812;2023-10-19T04:18:36;97294.75;;;-0.99;95.13
51261;BME280;61705;46.228;24.812;2023-10-19T04:21:04;97291.25;;;-0.96;95.15
51261;BME280;61705;46.228;24.812;2023-10-19T04:23:31;97289.53;;;-1.00;95.17
51261;BME280;61705;46.228;24.812;2023-10-19T04:26:01;97288.69;;;-1.04;94.99
51261;BME280;61705;46.228;24.812;2023-10-19T04:28:33;97294.78;;;-1.05;95.25
51261;BME280;61705;46.228;24.812;2023-10-19T04:31:25;97299.03;;;-0.98;95.00
51261;BME280;61705;46.228;24.812;2023-10-19T04:33:52;97298.25;;;-1.06;94.61
51261;BME280;61705;46.228;24.812;2023-10-19T04:36:23;97290.47;;;-1.07;94.47
51261;BME280;61705;46.228;24.812;2023-10-19T04:38:49;97299.09;;;-1.02;94.55
51261;BME280;61705;46.228;24.812;2023-10-19T04:41:18;97296.44;;;-0.94;94.55
51261;BME280;61705;46.228;24.812;2023-10-19T04:43:44;97297.25;;;-0.85;94.54
51261;BME280;61705;46.228;24.812;2023-10-19T04:46:16;97293.72;;;-0.78;94.15
51261;BME280;61705;46.228;24.812;2023-10-19T04:48:45;97287.66;;;-0.75;93.97
51261;BME280;61705;46.228;24.812;2023-10-19T04:51:12;97292.78;;;-0.69;94.00
51261;BME280;61705;46.228;24.812;2023-10-19T04:53:39;97307.53;;;-0.73;93.54
51261;BME280;61705;46.228;24.812;2023-10-19T04:56:05;97307.50;;;-0.69;93.36
51261;BME280;61705;46.228;24.812;2023-10-19T04:58:35;97297.03;;;-0.54;93.22
51261;BME280;61705;46.228;24.812;2023-10-19T05:01:03;97302.06;;;-0.37;92.91
51261;BME280;61705;46.228;24.812;2023-10-19T05:03:30;97303.06;;;-0.55;92.28
51261;BME280;61705;46.228;24.812;2023-10-19T05:05:59;97306.53;;;-0.53;92.46
51261;BME280;61705;46.228;24.812;2023-10-19T05:08:27;97307.41;;;-0.57;92.53
51261;BME280;61705;46.228;24.812;2023-10-19T05:10:55;97291.03;;;-0.61;92.40
51261;BME280;61705;46.228;24.812;2023-10-19T05:13:23;97292.75;;;-0.63;92.32
51261;BME280;61705;46.228;24.812;2023-10-19T05:15:50;97302.28;;;-0.63;92.28
51261;BME280;61705;46.228;24.812;2023-10-19T05:18:17;97296.19;;;-0.62;92.39
51261;BME280;61705;46.228;24.812;2023-10-19T05:20:43;97293.56;;;-0.56;92.12
51261;BME280;61705;46.228;24.812;2023-10-19T05:23:10;97287.59;;;-0.66;92.21
51261;BME280;61705;46.228;24.812;2023-10-19T05:25:37;97287.59;;;-0.67;91.78
51261;BME280;61705;46.228;24.812;2023-10-19T05:28:04;97286.75;;;-0.68;91.99
51261;BME280;61705;46.228;24.812;2023-10-19T05:30:32;97294.44;;;-0.59;91.77
51261;BME280;61705;46.228;24.812;2023-10-19T05:32:59;97292.78;;;-0.66;91.75
51261;BME280;61705;46.228;24.812;2023-10-19T05:35:28;97292.69;;;-0.58;91.86
51261;BME280;61705;46.228;24.812;2023-10-19T05:37:56;97294.41;;;-0.56;91.82
51261;BME280;61705;46.228;24.812;2023-10-19T05:40:25;97297.84;;;-0.49;91.92
51261;BME280;61705;46.228;24.812;2023-10-19T05:42:58;97294.34;;;-0.45;91.66
51261;BME280;61705;46.228;24.812;2023-10-19T05:45:29;97286.56;;;-0.46;91.81
51261;BME280;61705;46.228;24.812;2023-10-19T05:47:56;97293.44;;;-0.42;92.00
51261;BME280;61705;46.228;24.812;2023-10-19T05:50:24;97285.63;;;-0.36;91.74
51261;BME280;61705;46.228;24.812;2023-10-19T05:52:51;97284.75;;;-0.38;91.81
51261;BME280;61705;46.228;24.812;2023-10-19T05:55:22;97276.16;;;-0.43;91.58
51261;BME280;61705;46.228;24.812;2023-10-19T05:57:49;97272.69;;;-0.42;92.01
51261;BME280;61705;46.228;24.812;2023-10-19T06:00:15;97281.25;;;-0.34;92.06
51261;BME280;61705;46.228;24.812;2023-10-19T06:02:47;97272.72;;;-0.45;92.17
51261;BME280;61705;46.228;24.812;2023-10-19T06:05:16;97279.81;;;-0.69;92.52
51261;BME280;61705;46.228;24.812;2023-10-19T06:07:43;97281.47;;;-0.59;93.01
51261;BME280;61705;46.228;24.812;2023-10-19T06:10:11;97282.22;;;-0.43;93.13
51261;BME280;61705;46.228;24.812;2023-10-19T06:12:45;97285.56;;;-0.32;92.96
51261;BME280;61705;46.228;24.812;2023-10-19T06:15:12;97280.53;;;-0.47;92.66
51261;BME280;61705;46.228;24.812;2023-10-19T06:17:39;97274.41;;;-0.41;92.93
51261;BME280;61705;46.228;24.812;2023-10-19T06:20:07;97276.88;;;-0.26;93.01
51261;BME280;61705;46.228;24.812;2023-10-19T06:22:35;97278.47;;;-0.14;92.91
51261;BME280;61705;46.228;24.812;2023-10-19T06:25:02;97276.84;;;-0.23;92.70
51261;BME280;61705;46.228;24.812;2023-10-19T06:27:31;97278.50;;;-0.16;92.82
51261;BME280;61705;46.228;24.812;2023-10-19T06:29:57;97288.03;;;-0.18;92.85
51261;BME280;61705;46.228;24.812;2023-10-19T06:32:24;97276.72;;;-0.11;93.22
51261;BME280;61705;46.228;24.812;2023-10-19T06:34:51;97276.44;;;0.17;93.03
51261;BME280;61705;46.228;24.812;2023-10-19T06:37:18;97283.19;;;0.35;92.59
51261;BME280;61705;46.228;24.812;2023-10-19T06:39:45;97271.94;;;0.34;91.84
51261;BME280;61705;46.228;24.812;2023-10-19T06:42:11;97278.78;;;0.40;91.64
51261;BME280;61705;46.228;24.812;2023-10-19T06:44:40;97276.94;;;0.50;91.45
51261;BME280;61705;46.228;24.812;2023-10-19T06:47:08;97260.19;;;0.70;91.01
51261;BME280;61705;46.228;24.812;2023-10-19T06:49:35;97260.91;;;0.83;90.76
51261;BME280;61705;46.228;24.812;2023-10-19T06:52:02;97263.22;;;1.02;90.66
51261;BME280;61705;46.228;24.812;2023-10-19T06:54:31;97251.75;;;1.16;90.41
51261;BME280;61705;46.228;24.812;2023-10-19T06:56:59;97240.41;;;1.19;90.28
51261;BME280;61705;46.228;24.812;2023-10-19T06:59:25;97239.50;;;1.23;90.33
51261;BME280;61705;46.228;24.812;2023-10-19T07:01:52;97240.09;;;1.40;90.56
51261;BME280;61705;46.228;24.812;2023-10-19T07:04:19;97241.53;;;1.58;91.09
51261;BME280;61705;46.228;24.812;2023-10-19T07:06:51;97236.16;;;1.68;91.17
51261;BME280;61705;46.228;24.812;2023-10-19T07:09:17;97232.44;;;1.81;91.22
51261;BME280;61705;46.228;24.812;2023-10-19T07:11:45;97232.72;;;2.13;90.30
51261;BME280;61705;46.228;24.812;2023-10-19T07:14:11;97227.00;;;2.40;89.49
51261;BME280;61705;46.228;24.812;2023-10-19T07:16:42;97226.56;;;2.59;88.13
51261;BME280;61705;46.228;24.812;2023-10-19T07:19:09;97219.13;;;2.81;88.02
51261;BME280;61705;46.228;24.812;2023-10-19T07:21:35;97218.00;;;2.93;87.29
51261;BME280;61705;46.228;24.812;2023-10-19T07:24:04;97225.50;;;3.07;86.99
51261;BME280;61705;46.228;24.812;2023-10-19T07:26:35;97230.25;;;3.27;86.19
51261;BME280;61705;46.228;24.812;2023-10-19T07:29:11;97236.84;;;3.43;85.83
51261;BME280;61705;46.228;24.812;2023-10-19T07:31:44;97231.31;;;3.55;85.59
51261;BME280;61705;46.228;24.812;2023-10-19T07:34:20;97223.16;;;3.68;85.70
51261;BME280;61705;46.228;24.812;2023-10-19T07:36:52;97214.19;;;3.78;84.28
51261;BME280;61705;46.228;24.812;2023-10-19T07:39:20;97211.22;;;3.92;84.35
51261;BME280;61705;46.228;24.812;2023-10-19T07:41:49;97204.75;;;4.05;84.44
51261;BME280;61705;46.228;24.812;2023-10-19T07:44:16;97206.91;;;4.22;84.63
51261;BME280;61705;46.228;24.812;2023-10-19T07:46:43;97201.84;;;4.47;84.01
51261;BME280;61705;46.228;24.812;2023-10-19T07:49:12;97198.41;;;4.74;83.36
51261;BME280;61705;46.228;24.812;2023-10-19T07:51:44;97200.06;;;4.79;81.86
51261;BME280;61705;46.228;24.812;2023-10-19T07:54:12;97196.19;;;4.90;82.14
51261;BME280;61705;46.228;24.812;2023-10-19T07:56:39;97202.78;;;5.02;82.14
51261;BME280;61705;46.228;24.812;2023-10-19T07:59:05;97196.38;;;5.12;81.59
51261;BME280;61705;46.228;24.812;2023-10-19T08:01:33;97183.25;;;5.40;80.04
51261;BME280;61705;46.228;24.812;2023-10-19T08:04:00;97180.47;;;5.72;80.11
51261;BME280;61705;46.228;24.812;2023-10-19T08:06:27;97176.81;;;6.02;80.71
51261;BME280;61705;46.228;24.812;2023-10-19T08:08:53;97181.81;;;6.33;80.18
51261;BME280;61705;46.228;24.812;2023-10-19T08:11:21;97177.69;;;6.26;78.10
51261;BME280;61705;46.228;24.812;2023-10-19T08:13:48;97176.47;;;6.35;76.82
51261;BME280;61705;46.228;24.812;2023-10-19T08:16:16;97170.91;;;6.44;77.27
51261;BME280;61705;46.228;24.812;2023-10-19T08:18:43;97158.66;;;6.67;77.82
51261;BME280;61705;46.228;24.812;2023-10-19T08:21:09;97156.00;;;6.68;76.38
51261;BME280;61705;46.228;24.812;2023-10-19T08:23:38;97157.13;;;6.84;76.09
51261;BME280;61705;46.228;24.812;2023-10-19T08:26:05;97161.75;;;7.00;74.87
51261;BME280;61705;46.228;24.812;2023-10-19T08:28:34;97166.16;;;7.21;77.10
51261;BME280;61705;46.228;24.812;2023-10-19T08:31:02;97157.66;;;7.36;73.89
51261;BME280;61705;46.228;24.812;2023-10-19T08:33:29;97152.19;;;7.63;72.79
51261;BME280;61705;46.228;24.812;2023-10-19T08:35:56;97156.72;;;7.80;72.89
51261;BME280;61705;46.228;24.812;2023-10-19T08:38:23;97145.53;;;7.75;72.71
51261;BME280;61705;46.228;24.812;2023-10-19T08:40:50;97143.50;;;7.61;71.18
51261;BME280;61705;46.228;24.812;2023-10-19T08:43:17;97137.38;;;7.81;71.63
51261;BME280;61705;46.228;24.812;2023-10-19T08:45:45;97133.88;;;8.01;70.70
51261;BME280;61705;46.228;24.812;2023-10-19T08:48:12;97127.78;;;8.00;70.17
51261;BME280;61705;46.228;24.812;2023-10-19T08:50:38;97124.00;;;8.06;69.75
51261;BME280;61705;46.228;24.812;2023-10-19T08:53:06;97114.63;;;8.19;69.84
51261;BME280;61705;46.228;24.812;2023-10-19T08:55:35;97113.88;;;8.36;68.59
51261;BME280;61705;46.228;24.812;2023-10-19T08:58:15;97102.38;;;8.58;68.01
51261;BME280;61705;46.228;24.812;2023-10-19T09:00:47;97105.94;;;8.75;68.28
51261;BME280;61705;46.228;24.812;2023-10-19T09:03:15;97105.56;;;8.83;67.60
51261;BME280;61705;46.228;24.812;2023-10-19T09:05:44;97098.09;;;8.93;68.66
51261;BME280;61705;46.228;24.812;2023-10-19T09:08:17;97108.63;;;8.93;68.18
51261;BME280;61705;46.228;24.812;2023-10-19T09:10:45;97097.56;;;9.04;68.64
51261;BME280;61705;46.228;24.812;2023-10-19T09:13:13;97105.94;;;9.12;67.31
51261;BME280;61705;46.228;24.812;2023-10-19T09:15:45;97091.38;;;9.22;67.98
51261;BME280;61705;46.228;24.812;2023-10-19T09:18:21;97085.81;;;9.45;67.52
51261;BME280;61705;46.228;24.812;2023-10-19T09:20:48;97087.00;;;9.57;68.81
51261;BME280;61705;46.228;24.812;2023-10-19T09:23:35;97090.06;;;9.65;68.54
51261;BME280;61705;46.228;24.812;2023-10-19T09:26:03;97082.00;;;9.68;66.73
51261;BME280;61705;46.228;24.812;2023-10-19T09:28:31;97082.63;;;9.56;66.69
51261;BME280;61705;46.228;24.812;2023-10-19T09:31:00;97089.94;;;9.68;69.21
51261;BME280;61705;46.228;24.812;2023-10-19T09:33:30;97079.47;;;10.00;67.32
51261;BME280;61705;46.228;24.812;2023-10-19T09:35:57;97083.13;;;9.97;66.12
51261;BME280;61705;46.228;24.812;2023-10-19T09:38:27;97070.28;;;10.07;66.36
51261;BME280;61705;46.228;24.812;2023-10-19T09:40:54;97073.97;;;10.20;65.49
51261;BME280;61705;46.228;24.812;2023-10-19T09:43:30;97076.69;;;10.36;65.40
51261;BME280;61705;46.228;24.812;2023-10-19T09:45:57;97062.81;;;10.64;66.37
51261;BME280;61705;46.228;24.812;2023-10-19T09:48:27;97066.72;;;10.73;64.97
51261;BME280;61705;46.228;24.812;2023-10-19T09:50:55;97055.63;;;10.82;63.92
51261;BME280;61705;46.228;24.812;2023-10-19T09:53:28;97058.22;;;10.84;67.03
51261;BME280;61705;46.228;24.812;2023-10-19T09:55:58;97052.81;;;10.70;64.39
51261;BME280;61705;46.228;24.812;2023-10-19T09:58:31;97050.28;;;10.68;65.10
51261;BME280;61705;46.228;24.812;2023-10-19T10:01:00;97046.34;;;10.59;67.19
51261;BME280;61705;46.228;24.812;2023-10-19T10:03:42;97031.25;;;10.46;65.05
51261;BME280;61705;46.228;24.812;2023-10-19T10:06:13;97025.66;;;10.52;64.50
51261;BME280;61705;46.228;24.812;2023-10-19T10:08:41;97028.03;;;10.72;65.30
51261;BME280;61705;46.228;24.812;2023-10-19T10:11:24;97034.31;;;10.70;66.64
51261;BME280;61705;46.228;24.812;2023-10-19T10:13:57;97023.59;;;10.73;65.51
51261;BME280;61705;46.228;24.812;2023-10-19T10:16:25;97014.97;;;10.69;64.99
51261;BME280;61705;46.228;24.812;2023-10-19T10:18:59;97012.50;;;10.82;64.61
51261;BME280;61705;46.228;24.812;2023-10-19T10:21:27;96998.69;;;10.77;65.80
51261;BME280;61705;46.228;24.812;2023-10-19T10:23:55;97002.94;;;10.79;65.50
51261;BME280;61705;46.228;24.812;2023-10-19T10:26:22;96994.44;;;10.74;64.39
51261;BME280;61705;46.228;24.812;2023-10-19T10:29:10;96994.56;;;10.87;65.22
51261;BME280;61705;46.228;24.812;2023-10-19T10:31:47;96994.66;;;11.01;64.94
51261;BME280;61705;46.228;24.812;2023-10-19T10:37:02;96996.59;;;11.28;65.67
51261;BME280;61705;46.228;24.812;2023-10-19T10:39:29;96994.28;;;11.52;63.49
51261;BME280;61705;46.228;24.812;2023-10-19T10:41:57;96990.34;;;11.59;62.68
51261;BME280;61705;46.228;24.812;2023-10-19T10:44:39;96988.16;;;11.66;64.25
51261;BME280;61705;46.228;24.812;2023-10-19T10:47:07;96990.44;;;11.72;64.30
51261;BME280;61705;46.228;24.812;2023-10-19T10:54:51;96985.91;;;11.74;64.89
51261;BME280;61705;46.228;24.812;2023-10-19T10:57:19;96970.69;;;11.77;63.97
51261;BME280;61705;46.228;24.812;2023-10-19T10:59:46;96965.03;;;11.69;64.76
51261;BME280;61705;46.228;24.812;2023-10-19T11:02:16;96966.03;;;11.81;64.40
51261;BME280;61705;46.228;24.812;2023-10-19T11:04:44;96970.81;;;11.90;63.94
51261;BME280;61705;46.228;24.812;2023-10-19T11:07:17;96955.38;;;12.11;63.75
51261;BME280;61705;46.228;24.812;2023-10-19T11:09:45;96946.44;;;12.26;63.60
51261;BME280;61705;46.228;24.812;2023-10-19T11:12:12;96954.84;;;12.33;63.80
51261;BME280;61705;46.228;24.812;2023-10-19T11:14:52;96954.91;;;12.46;61.82
51261;BME280;61705;46.228;24.812;2023-10-19T11:17:20;96943.84;;;12.39;61.66
51261;BME280;61705;46.228;24.812;2023-10-19T11:19:50;96932.75;;;12.47;63.43
51261;BME280;61705;46.228;24.812;2023-10-19T11:22:16;96926.75;;;12.57;62.03
51261;BME280;61705;46.228;24.812;2023-10-19T11:24:43;96919.88;;;12.55;61.17
51261;BME280;61705;46.228;24.812;2023-10-19T11:27:09;96920.31;;;12.62;61.52
51261;BME280;61705;46.228;24.812;2023-10-19T11:29:38;96918.06;;;12.55;61.55
51261;BME280;61705;46.228;24.812;2023-10-19T11:32:07;96914.78;;;12.65;61.70
51261;BME280;61705;46.228;24.812;2023-10-19T11:34:34;96920.59;;;12.84;60.82
51261;BME280;61705;46.228;24.812;2023-10-19T11:37:02;96918.69;;;12.86;60.79
51261;BME280;61705;46.228;24.812;2023-10-19T11:39:31;96910.19;;;12.81;60.93
51261;BME280;61705;46.228;24.812;2023-10-19T11:41:58;96906.75;;;12.66;60.85
51261;BME280;61705;46.228;24.812;2023-10-19T11:44:26;96892.00;;;12.62;61.31
51261;BME280;61705;46.228;24.812;2023-10-19T11:46:55;96893.09;;;12.72;61.37
51261;BME280;61705;46.228;24.812;2023-10-19T11:49:22;96879.03;;;12.97;61.06
51261;BME280;61705;46.228;24.812;2023-10-19T11:51:52;96881.78;;;13.09;60.83
51261;BME280;61705;46.228;24.812;2023-10-19T11:54:19;96876.91;;;13.15;60.04
51261;BME280;61705;46.228;24.812;2023-10-19T11:56:46;96874.19;;;13.30;59.71
51261;BME280;61705;46.228;24.812;2023-10-19T11:59:21;96876.28;;;13.63;59.80
51261;BME280;61705;46.228;24.812;2023-10-19T12:01:51;96871.59;;;13.79;58.79
51261;BME280;61705;46.228;24.812;2023-10-19T12:04:20;96866.84;;;13.59;58.84
51261;BME280;61705;46.228;24.812;2023-10-19T12:06:50;96858.81;;;13.47;59.31
51261;BME280;61705;46.228;24.812;2023-10-19T12:09:17;96866.09;;;13.57;59.03
51261;BME280;61705;46.228;24.812;2023-10-19T12:11:49;96859.94;;;13.69;59.33
51261;BME280;61705;46.228;24.812;2023-10-19T12:14:16;96852.81;;;13.69;58.82
51261;BME280;61705;46.228;24.812;2023-10-19T12:16:42;96853.06;;;13.90;59.09
51261;BME280;61705;46.228;24.812;2023-10-19T12:19:12;96858.19;;;14.17;58.74
51261;BME280;61705;46.228;24.812;2023-10-19T12:21:40;96850.81;;;14.34;59.15
51261;BME280;61705;46.228;24.812;2023-10-19T12:24:08;96845.44;;;14.22;59.42
51261;BME280;61705;46.228;24.812;2023-10-19T12:26:37;96839.91;;;14.26;57.52
51261;BME280;61705;46.228;24.812;2023-10-19T12:29:05;96833.00;;;14.23;57.24
51261;BME280;61705;46.228;24.812;2023-10-19T12:31:36;96838.41;;;14.45;57.14
51261;BME280;61705;46.228;24.812;2023-10-19T12:34:06;96824.69;;;14.52;55.23
51261;BME280;61705;46.228;24.812;2023-10-19T12:36:34;96814.22;;;14.61;55.03
51261;BME280;61705;46.228;24.812;2023-10-19T12:39:01;96826.16;;;14.91;54.76
51261;BME280;61705;46.228;24.812;2023-10-19T12:41:33;96817.25;;;14.68;54.21
51261;BME280;61705;46.228;24.812;2023-10-19T12:44:03;96812.56;;;14.72;55.02
51261;BME280;61705;46.228;24.812;2023-10-19T12:46:44;96814.81;;;14.65;53.78
51261;BME280;61705;46.228;24.812;2023-10-19T12:49:12;96808.38;;;14.56;55.53
51261;BME280;61705;46.228;24.812;2023-10-19T12:51:44;96804.69;;;14.46;54.57
51261;BME280;61705;46.228;24.812;2023-10-19T12:54:12;96795.88;;;14.45;55.38
51261;BME280;61705;46.228;24.812;2023-10-19T12:56:40;96791.88;;;14.40;54.63
51261;BME280;61705;46.228;24.812;2023-10-19T12:59:08;96798.28;;;14.49;55.18
51261;BME280;61705;46.228;24.812;2023-10-19T13:01:35;96799.09;;;14.62;54.61
51261;BME280;61705;46.228;24.812;2023-10-19T13:04:02;96785.81;;;14.62;53.98
51261;BME280;61705;46.228;24.812;2023-10-19T13:06:40;96794.06;;;14.70;54.88
51261;BME280;61705;46.228;24.812;2023-10-19T13:09:14;96797.28;;;14.62;57.07
51261;BME280;61705;46.228;24.812;2023-10-19T13:11:48;96787.00;;;14.58;55.89
51261;BME280;61705;46.228;24.812;2023-10-19T13:14:18;96788.91;;;14.56;55.54
51261;BME280;61705;46.228;24.812;2023-10-19T13:16:45;96785.19;;;14.58;56.74
51261;BME280;61705;46.228;24.812;2023-10-19T13:19:11;96786.38;;;14.54;57.48
51261;BME280;61705;46.228;24.812;2023-10-19T13:21:39;96779.31;;;14.42;55.74